Pagrindinis puslapis
METAR-TAF:

METAR-TAF

Oro uostai :

Marianhamina, Suomija

platuma: 60-07N, ilguma: 019-54E, Aukštis: 6 m

Dabartinis oras

Ataskaita buvo paskelbta 37 minutes, ne 13:20 UTC
Vėjas 8 kt iš Pietų
Temperatūra 10°C
Drėgmė 93%
Slėgis 1006 hPa
Matomumas 10 km arba daugiau
Su prošvaistėmis ne aukštis 600 ft

METAR: EFMA 291320Z AUTO 19008KT 9999 BKN006 10/09 Q1006

Laikas: 15:57 (13:57 UTC)

Prognozė

Ataskaita buvo paskelbta 2 valandos ir 19 minutes, ne 11:38 UTC
Prognozė galioja nuo 29 metu 12 UTC su 29 metu 21 UTC
Vėjas 10 kt iš Pietų/Pietvakarių
Matomumas 10 km arba daugiau
Mažai debesys ne aukštis 600 ft
Tikimybė 40% :
Laikinai
nuo 29 metu 12 UTC su 29 metu 21 UTC
Su prošvaistėmis ne aukštis 600 ft
Mažai debesys ne aukštis 3000 ft, Liūtiniai kamuoliniai debesys.
Tapsmas
nuo 29 metu 19 UTC su 29 metu 21 UTC
Vėjas 5 kt iš Vakarų

TAF: EFMA 291138Z 2912/2921 20010KT 9999 FEW006 PROB40 TEMPO 2912/2921 BKN006 FEW030CB BECMG 2919/2921 26005KT

Orai ataskaitas ir orų prognozės (METAR, TAF).

turimą stotys yra geltonos ir raudonos taškus žemėlapyje.

Perkelti pele per norėdami pamatyti stoties vardą.

Tada spustelėkite, norėdami matyti oro stebėjimo ir prognozės.

Norėdami pakeisti žemėlapį: spustelėkite ant žalios mygtukų su juodo kryžiaus žemyn,; žalią mygtuką su brūkšneliu, jei norite nutolinti; arba žalių rodyklių gretimoms žemėlapius.


METAR-TAF: